sensor_id;sensor_type;location;lat;lon;timestamp;temperature;humidity
72326;DHT22;60278;47.980;18.780;2022-08-30T09:16:00;25.42;68.58
72326;DHT22;60278;47.980;18.780;2022-08-30T09:19:43;25.53;69.41
72326;DHT22;60278;47.980;18.780;2022-08-30T09:26:46;25.76;69.22
72326;DHT22;60278;47.980;18.780;2022-08-30T09:30:25;25.70;68.37
72326;DHT22;60278;47.980;18.780;2022-08-30T09:34:06;26.43;66.99
72326;DHT22;60278;47.980;18.780;2022-08-30T09:44:57;25.22;70.19
72326;DHT22;60278;47.980;18.780;2022-08-30T09:48:44;24.94;72.12
72326;DHT22;60278;47.980;18.780;2022-08-30T09:52:38;24.98;71.63
72326;DHT22;60278;47.980;18.780;2022-08-30T09:56:22;25.03;72.09
72326;DHT22;60278;47.980;18.780;2022-08-30T10:00:06;25.24;70.90
72326;DHT22;60278;47.980;18.780;2022-08-30T10:04:05;25.41;67.28
72326;DHT22;60278;47.980;18.780;2022-08-30T10:15:39;26.06;66.13
72326;DHT22;60278;47.980;18.780;2022-08-30T10:23:11;26.40;64.16
72326;DHT22;60278;47.980;18.780;2022-08-30T10:26:47;26.79;63.25
72326;DHT22;60278;47.980;18.780;2022-08-30T10:30:20;26.95;63.26
72326;DHT22;60278;47.980;18.780;2022-08-30T10:33:57;27.83;60.17
72326;DHT22;60278;47.980;18.780;2022-08-30T10:37:36;28.16;60.11
72326;DHT22;60278;47.980;18.780;2022-08-30T10:45:12;28.73;59.02
72326;DHT22;60278;47.980;18.780;2022-08-30T10:48:46;28.83;58.94
72326;DHT22;60278;47.980;18.780;2022-08-30T10:52:32;28.35;59.61
72326;DHT22;60278;47.980;18.780;2022-08-30T10:56:11;27.88;59.80
72326;DHT22;60278;47.980;18.780;2022-08-30T11:00:07;28.63;59.27
72326;DHT22;60278;47.980;18.780;2022-08-30T11:04:12;27.64;61.72
72326;DHT22;60278;47.980;18.780;2022-08-30T11:12:09;29.21;58.71
72326;DHT22;60278;47.980;18.780;2022-08-30T11:16:04;28.24;58.63
72326;DHT22;60278;47.980;18.780;2022-08-30T11:19:39;29.48;56.06
72326;DHT22;60278;47.980;18.780;2022-08-30T11:26:58;30.56;55.28
72326;DHT22;60278;47.980;18.780;2022-08-30T11:34:03;27.97;58.91
72326;DHT22;60278;47.980;18.780;2022-08-30T11:37:35;29.86;55.25
72326;DHT22;60278;47.980;18.780;2022-08-30T11:41:13;29.44;54.26
72326;DHT22;60278;47.980;18.780;2022-08-30T11:56:32;28.31;58.40
72326;DHT22;60278;47.980;18.780;2022-08-30T12:00:35;27.80;58.80
72326;DHT22;60278;47.980;18.780;2022-08-30T12:15:56;29.27;56.42
72326;DHT22;60278;47.980;18.780;2022-08-30T12:19:29;29.10;57.18
72326;DHT22;60278;47.980;18.780;2022-08-30T12:23:16;29.20;53.97
72326;DHT22;60278;47.980;18.780;2022-08-30T12:26:50;28.21;55.28
72326;DHT22;60278;47.980;18.780;2022-08-30T12:30:26;28.21;58.03
72326;DHT22;60278;47.980;18.780;2022-08-30T12:34:01;29.30;56.02
72326;DHT22;60278;47.980;18.780;2022-08-30T12:37:35;28.86;54.97
72326;DHT22;60278;47.980;18.780;2022-08-30T12:41:07;29.51;56.92
72326;DHT22;60278;47.980;18.780;2022-08-30T12:44:39;29.13;57.22
72326;DHT22;60278;47.980;18.780;2022-08-30T12:48:14;29.10;56.26
72326;DHT22;60278;47.980;18.780;2022-08-30T12:51:46;29.28;57.29
72326;DHT22;60278;47.980;18.780;2022-08-30T12:55:23;28.70;55.79
72326;DHT22;60278;47.980;18.780;2022-08-30T12:58:55;28.93;57.22
72326;DHT22;60278;47.980;18.780;2022-08-30T13:02:40;29.30;58.34
72326;DHT22;60278;47.980;18.780;2022-08-30T13:06:11;29.37;54.60
72326;DHT22;60278;47.980;18.780;2022-08-30T13:09:42;28.63;58.03
72326;DHT22;60278;47.980;18.780;2022-08-30T13:13:33;28.48;58.14
72326;DHT22;60278;47.980;18.780;2022-08-30T13:17:23;27.87;60.36
72326;DHT22;60278;47.980;18.780;2022-08-30T13:24:53;28.55;57.25
72326;DHT22;60278;47.980;18.780;2022-08-30T13:28:25;28.72;56.08
72326;DHT22;60278;47.980;18.780;2022-08-30T13:31:56;28.52;55.49
72326;DHT22;60278;47.980;18.780;2022-08-30T13:35:28;28.60;56.17
72326;DHT22;60278;47.980;18.780;2022-08-30T13:39:00;28.76;56.00
72326;DHT22;60278;47.980;18.780;2022-08-30T13:42:32;28.84;54.20
72326;DHT22;60278;47.980;18.780;2022-08-30T13:46:03;28.24;53.95
72326;DHT22;60278;47.980;18.780;2022-08-30T13:49:36;28.31;54.83
72326;DHT22;60278;47.980;18.780;2022-08-30T13:53:08;28.74;56.40
72326;DHT22;60278;47.980;18.780;2022-08-30T13:56:39;28.62;54.09
72326;DHT22;60278;47.980;18.780;2022-08-30T14:00:14;28.52;53.66
72326;DHT22;60278;47.980;18.780;2022-08-30T14:03:47;28.18;55.31
72326;DHT22;60278;47.980;18.780;2022-08-30T14:07:18;28.69;54.63
72326;DHT22;60278;47.980;18.780;2022-08-30T14:10:49;28.73;53.91
72326;DHT22;60278;47.980;18.780;2022-08-30T14:14:20;28.08;54.71
72326;DHT22;60278;47.980;18.780;2022-08-30T14:17:51;27.81;54.67
72326;DHT22;60278;47.980;18.780;2022-08-30T14:21:23;27.70;55.21
72326;DHT22;60278;47.980;18.780;2022-08-30T14:24:54;28.21;53.46
72326;DHT22;60278;47.980;18.780;2022-08-30T14:28:25;28.24;52.25
72326;DHT22;60278;47.980;18.780;2022-08-30T14:31:59;28.32;52.04
72326;DHT22;60278;47.980;18.780;2022-08-30T14:35:30;28.24;51.82
72326;DHT22;60278;47.980;18.780;2022-08-30T14:39:04;28.01;51.66
72326;DHT22;60278;47.980;18.780;2022-08-30T14:42:36;28.01;50.60
72326;DHT22;60278;47.980;18.780;2022-08-30T14:46:08;28.04;50.69
72326;DHT22;60278;47.980;18.780;2022-08-30T14:49:39;27.85;52.44
72326;DHT22;60278;47.980;18.780;2022-08-30T14:53:10;27.71;53.43
72326;DHT22;60278;47.980;18.780;2022-08-30T14:56:41;27.37;53.52
72326;DHT22;60278;47.980;18.780;2022-08-30T15:00:13;27.43;53.48
72326;DHT22;60278;47.980;18.780;2022-08-30T15:03:45;27.49;52.36
72326;DHT22;60278;47.980;18.780;2022-08-30T15:07:16;27.57;52.33
72326;DHT22;60278;47.980;18.780;2022-08-30T15:10:47;27.50;53.44
72326;DHT22;60278;47.980;18.780;2022-08-30T15:14:19;27.51;51.92
72326;DHT22;60278;47.980;18.780;2022-08-30T15:17:50;27.44;51.45
72326;DHT22;60278;47.980;18.780;2022-08-30T15:21:25;27.32;53.88
72326;DHT22;60278;47.980;18.780;2022-08-30T15:24:56;27.36;52.04
72326;DHT22;60278;47.980;18.780;2022-08-30T15:28:28;27.26;52.03
72326;DHT22;60278;47.980;18.780;2022-08-30T15:32:00;27.23;50.97
72326;DHT22;60278;47.980;18.780;2022-08-30T15:35:31;27.27;51.37
72326;DHT22;60278;47.980;18.780;2022-08-30T15:39:04;27.15;51.55
72326;DHT22;60278;47.980;18.780;2022-08-30T15:42:35;27.10;51.36
72326;DHT22;60278;47.980;18.780;2022-08-30T15:46:24;26.95;52.59
72326;DHT22;60278;47.980;18.780;2022-08-30T15:49:58;26.91;51.77
72326;DHT22;60278;47.980;18.780;2022-08-30T15:53:32;26.85;51.92
72326;DHT22;60278;47.980;18.780;2022-08-30T15:57:03;26.76;53.71
72326;DHT22;60278;47.980;18.780;2022-08-30T16:00:34;26.65;53.07
72326;DHT22;60278;47.980;18.780;2022-08-30T16:04:05;26.54;52.88
72326;DHT22;60278;47.980;18.780;2022-08-30T16:07:36;26.44;53.43
72326;DHT22;60278;47.980;18.780;2022-08-30T16:11:09;26.47;53.44
72326;DHT22;60278;47.980;18.780;2022-08-30T16:14:41;26.40;54.17
72326;DHT22;60278;47.980;18.780;2022-08-30T16:18:13;26.31;53.45
72326;DHT22;60278;47.980;18.780;2022-08-30T16:21:44;26.30;53.35
72326;DHT22;60278;47.980;18.780;2022-08-30T16:25:17;26.18;54.47
72326;DHT22;60278;47.980;18.780;2022-08-30T16:28:48;26.08;54.00
72326;DHT22;60278;47.980;18.780;2022-08-30T16:32:19;25.96;54.11
72326;DHT22;60278;47.980;18.780;2022-08-30T16:35:51;25.85;54.56
72326;DHT22;60278;47.980;18.780;2022-08-30T16:39:22;25.76;55.51
72326;DHT22;60278;47.980;18.780;2022-08-30T16:42:53;25.63;55.95
72326;DHT22;60278;47.980;18.780;2022-08-30T16:46:25;25.58;56.65
72326;DHT22;60278;47.980;18.780;2022-08-30T16:49:58;25.43;56.36
72326;DHT22;60278;47.980;18.780;2022-08-30T16:53:29;25.32;57.10
72326;DHT22;60278;47.980;18.780;2022-08-30T16:57:00;25.28;57.03
72326;DHT22;60278;47.980;18.780;2022-08-30T17:00:32;25.14;57.43
72326;DHT22;60278;47.980;18.780;2022-08-30T17:04:04;24.97;59.78
72326;DHT22;60278;47.980;18.780;2022-08-30T17:07:36;24.77;60.70
72326;DHT22;60278;47.980;18.780;2022-08-30T17:11:09;24.53;63.25
72326;DHT22;60278;47.980;18.780;2022-08-30T17:14:41;24.37;62.39
72326;DHT22;60278;47.980;18.780;2022-08-30T17:18:14;24.36;61.01
72326;DHT22;60278;47.980;18.780;2022-08-30T17:21:45;24.10;63.25
72326;DHT22;60278;47.980;18.780;2022-08-30T17:25:16;24.01;63.60
72326;DHT22;60278;47.980;18.780;2022-08-30T17:28:47;23.96;62.84
72326;DHT22;60278;47.980;18.780;2022-08-30T17:32:20;23.77;63.72
72326;DHT22;60278;47.980;18.780;2022-08-30T17:35:53;23.64;66.60
72326;DHT22;60278;47.980;18.780;2022-08-30T17:39:25;23.51;65.91
72326;DHT22;60278;47.980;18.780;2022-08-30T17:42:56;23.46;67.96
72326;DHT22;60278;47.980;18.780;2022-08-30T17:46:27;23.23;64.90
72326;DHT22;60278;47.980;18.780;2022-08-30T17:50:00;23.14;66.61
72326;DHT22;60278;47.980;18.780;2022-08-30T17:53:31;23.07;66.74
72326;DHT22;60278;47.980;18.780;2022-08-30T17:57:03;22.96;67.48
72326;DHT22;60278;47.980;18.780;2022-08-30T18:00:37;23.04;68.20
72326;DHT22;60278;47.980;18.780;2022-08-30T18:04:09;23.03;67.70
72326;DHT22;60278;47.980;18.780;2022-08-30T18:07:41;23.03;67.52
72326;DHT22;60278;47.980;18.780;2022-08-30T18:11:12;22.73;68.01
72326;DHT22;60278;47.980;18.780;2022-08-30T18:14:43;22.72;69.44
72326;DHT22;60278;47.980;18.780;2022-08-30T18:18:16;22.55;69.50
72326;DHT22;60278;47.980;18.780;2022-08-30T18:21:48;22.37;70.77
72326;DHT22;60278;47.980;18.780;2022-08-30T18:25:19;22.14;71.35
72326;DHT22;60278;47.980;18.780;2022-08-30T18:28:50;22.12;71.75
72326;DHT22;60278;47.980;18.780;2022-08-30T18:32:21;22.00;72.42
72326;DHT22;60278;47.980;18.780;2022-08-30T18:35:53;21.78;72.43
72326;DHT22;60278;47.980;18.780;2022-08-30T18:39:24;21.67;73.32
72326;DHT22;60278;47.980;18.780;2022-08-30T18:42:55;21.47;73.35
72326;DHT22;60278;47.980;18.780;2022-08-30T18:46:26;21.35;73.64
72326;DHT22;60278;47.980;18.780;2022-08-30T18:49:57;21.26;74.40
72326;DHT22;60278;47.980;18.780;2022-08-30T18:53:28;21.16;74.16
72326;DHT22;60278;47.980;18.780;2022-08-30T18:56:59;21.10;73.87
72326;DHT22;60278;47.980;18.780;2022-08-30T19:00:31;21.13;74.21
72326;DHT22;60278;47.980;18.780;2022-08-30T19:04:02;21.02;75.24
72326;DHT22;60278;47.980;18.780;2022-08-30T19:07:33;20.95;74.94
72326;DHT22;60278;47.980;18.780;2022-08-30T19:11:05;20.94;74.04
72326;DHT22;60278;47.980;18.780;2022-08-30T19:14:36;20.79;75.41
72326;DHT22;60278;47.980;18.780;2022-08-30T19:18:07;20.77;76.81
72326;DHT22;60278;47.980;18.780;2022-08-30T19:21:38;20.34;80.95
72326;DHT22;60278;47.980;18.780;2022-08-30T19:25:13;20.17;79.87
72326;DHT22;60278;47.980;18.780;2022-08-30T19:28:44;19.80;80.93
72326;DHT22;60278;47.980;18.780;2022-08-30T19:32:15;19.89;80.56
72326;DHT22;60278;47.980;18.780;2022-08-30T19:35:46;20.17;79.70
72326;DHT22;60278;47.980;18.780;2022-08-30T19:39:18;20.06;78.97
72326;DHT22;60278;47.980;18.780;2022-08-30T19:42:49;20.03;78.25
72326;DHT22;60278;47.980;18.780;2022-08-30T19:46:21;20.01;77.97
72326;DHT22;60278;47.980;18.780;2022-08-30T19:49:52;20.01;77.65
72326;DHT22;60278;47.980;18.780;2022-08-30T19:53:23;20.00;77.52
72326;DHT22;60278;47.980;18.780;2022-08-30T19:56:54;19.94;77.96
72326;DHT22;60278;47.980;18.780;2022-08-30T20:00:25;20.01;78.14
72326;DHT22;60278;47.980;18.780;2022-08-30T20:03:56;19.96;78.29
72326;DHT22;60278;47.980;18.780;2022-08-30T20:07:31;20.06;76.95
72326;DHT22;60278;47.980;18.780;2022-08-30T20:11:05;20.00;76.60
72326;DHT22;60278;47.980;18.780;2022-08-30T20:14:36;19.92;77.05
72326;DHT22;60278;47.980;18.780;2022-08-30T20:18:07;20.05;76.21
72326;DHT22;60278;47.980;18.780;2022-08-30T20:21:38;19.97;75.89
72326;DHT22;60278;47.980;18.780;2022-08-30T20:25:09;19.83;77.94
72326;DHT22;60278;47.980;18.780;2022-08-30T20:28:41;19.36;81.70
72326;DHT22;60278;47.980;18.780;2022-08-30T20:32:12;19.04;82.54
72326;DHT22;60278;47.980;18.780;2022-08-30T20:35:43;19.04;82.24
72326;DHT22;60278;47.980;18.780;2022-08-30T20:39:15;18.99;83.05
72326;DHT22;60278;47.980;18.780;2022-08-30T20:42:46;18.91;83.18
72326;DHT22;60278;47.980;18.780;2022-08-30T20:46:18;18.93;83.02
72326;DHT22;60278;47.980;18.780;2022-08-30T20:49:50;19.06;83.03
72326;DHT22;60278;47.980;18.780;2022-08-30T20:53:21;18.89;83.60
72326;DHT22;60278;47.980;18.780;2022-08-30T20:56:52;18.91;83.32
72326;DHT22;60278;47.980;18.780;2022-08-30T21:00:23;18.84;83.60
72326;DHT22;60278;47.980;18.780;2022-08-30T21:03:54;18.84;84.14
72326;DHT22;60278;47.980;18.780;2022-08-30T21:07:25;18.71;84.19
72326;DHT22;60278;47.980;18.780;2022-08-30T21:10:56;18.53;84.43
72326;DHT22;60278;47.980;18.780;2022-08-30T21:14:27;18.63;83.83
72326;DHT22;60278;47.980;18.780;2022-08-30T21:17:59;18.69;83.27
72326;DHT22;60278;47.980;18.780;2022-08-30T21:21:30;18.63;81.83
72326;DHT22;60278;47.980;18.780;2022-08-30T21:25:03;18.53;83.14
72326;DHT22;60278;47.980;18.780;2022-08-30T21:28:34;18.53;83.83
72326;DHT22;60278;47.980;18.780;2022-08-30T21:32:06;18.42;83.29
72326;DHT22;60278;47.980;18.780;2022-08-30T21:35:37;18.35;84.30
72326;DHT22;60278;47.980;18.780;2022-08-30T21:39:27;18.35;84.68
72326;DHT22;60278;47.980;18.780;2022-08-30T21:42:59;18.40;84.78
72326;DHT22;60278;47.980;18.780;2022-08-30T21:46:31;18.48;84.75
72326;DHT22;60278;47.980;18.780;2022-08-30T21:50:03;18.56;83.00
72326;DHT22;60278;47.980;18.780;2022-08-30T21:53:36;18.53;83.52
72326;DHT22;60278;47.980;18.780;2022-08-30T21:57:07;18.43;83.20
72326;DHT22;60278;47.980;18.780;2022-08-30T22:00:38;18.46;83.83
72326;DHT22;60278;47.980;18.780;2022-08-30T22:04:10;18.40;84.25
72326;DHT22;60278;47.980;18.780;2022-08-30T22:07:42;18.36;85.17
72326;DHT22;60278;47.980;18.780;2022-08-30T22:11:16;18.19;86.25
72326;DHT22;60278;47.980;18.780;2022-08-30T22:14:48;18.28;85.50
72326;DHT22;60278;47.980;18.780;2022-08-30T22:18:19;18.15;85.78
72326;DHT22;60278;47.980;18.780;2022-08-30T22:21:50;18.21;86.30
72326;DHT22;60278;47.980;18.780;2022-08-30T22:25:21;18.12;86.08
72326;DHT22;60278;47.980;18.780;2022-08-30T22:28:53;17.95;87.05
72326;DHT22;60278;47.980;18.780;2022-08-30T22:32:24;17.70;88.32
72326;DHT22;60278;47.980;18.780;2022-08-30T22:35:55;17.39;89.15
72326;DHT22;60278;47.980;18.780;2022-08-30T22:39:27;17.53;89.06
72326;DHT22;60278;47.980;18.780;2022-08-30T22:42:58;17.50;89.29
72326;DHT22;60278;47.980;18.780;2022-08-30T22:46:29;17.43;89.20
72326;DHT22;60278;47.980;18.780;2022-08-30T22:50:00;17.39;89.46
72326;DHT22;60278;47.980;18.780;2022-08-30T22:53:32;17.46;88.75
72326;DHT22;60278;47.980;18.780;2022-08-30T22:57:03;17.31;89.49
72326;DHT22;60278;47.980;18.780;2022-08-30T23:00:37;17.23;89.53
72326;DHT22;60278;47.980;18.780;2022-08-30T23:04:09;17.19;89.97
72326;DHT22;60278;47.980;18.780;2022-08-30T23:07:41;17.29;89.44
72326;DHT22;60278;47.980;18.780;2022-08-30T23:11:12;17.24;89.41
72326;DHT22;60278;47.980;18.780;2022-08-30T23:14:43;17.26;90.00
72326;DHT22;60278;47.980;18.780;2022-08-30T23:18:14;17.50;88.64
72326;DHT22;60278;47.980;18.780;2022-08-30T23:21:45;17.47;88.90
72326;DHT22;60278;47.980;18.780;2022-08-30T23:25:16;17.36;89.82
72326;DHT22;60278;47.980;18.780;2022-08-30T23:29:06;17.37;89.27
72326;DHT22;60278;47.980;18.780;2022-08-30T23:32:56;17.30;89.61
72326;DHT22;60278;47.980;18.780;2022-08-30T23:36:46;17.40;89.19
72326;DHT22;60278;47.980;18.780;2022-08-30T23:40:36;17.54;90.20
72326;DHT22;60278;47.980;18.780;2022-08-30T23:44:25;17.66;88.84
72326;DHT22;60278;47.980;18.780;2022-08-30T23:48:15;17.77;88.91
72326;DHT22;60278;47.980;18.780;2022-08-30T23:52:05;17.78;88.98
72326;DHT22;60278;47.980;18.780;2022-08-30T23:55:55;17.67;88.96
72326;DHT22;60278;47.980;18.780;2022-08-30T23:59:44;17.69;88.80
